sensor_id;sensor_type;location;lat;lon;timestamp;temperature;humidity
52435;DHT22;38354;52.892;6.148;2022-11-20T05:01:15;-0.70;99.90
52435;DHT22;38354;52.892;6.148;2022-11-20T05:03:42;-0.70;99.90
52435;DHT22;38354;52.892;6.148;2022-11-20T05:06:10;-0.70;99.90
52435;DHT22;38354;52.892;6.148;2022-11-20T05:08:35;-0.70;99.90
52435;DHT22;38354;52.892;6.148;2022-11-20T05:11:09;-0.70;99.90
52435;DHT22;38354;52.892;6.148;2022-11-20T05:13:35;-0.70;99.90
52435;DHT22;38354;52.892;6.148;2022-11-20T05:16:03;-0.70;99.90
52435;DHT22;38354;52.892;6.148;2022-11-20T05:18:28;-0.70;99.90
52435;DHT22;38354;52.892;6.148;2022-11-20T05:20:55;-0.70;99.90
52435;DHT22;38354;52.892;6.148;2022-11-20T05:23:21;-0.80;99.90
52435;DHT22;38354;52.892;6.148;2022-11-20T05:25:47;-0.80;99.90
52435;DHT22;38354;52.892;6.148;2022-11-20T05:28:13;-0.80;99.90
52435;DHT22;38354;52.892;6.148;2022-11-20T05:30:39;-0.80;99.90
52435;DHT22;38354;52.892;6.148;2022-11-20T05:33:05;-0.80;99.90
52435;DHT22;38354;52.892;6.148;2022-11-20T05:35:30;-0.90;99.90
52435;DHT22;38354;52.892;6.148;2022-11-20T05:37:56;-0.80;99.90
52435;DHT22;38354;52.892;6.148;2022-11-20T05:40:21;-0.80;99.90
52435;DHT22;38354;52.892;6.148;2022-11-20T05:42:47;-0.90;99.90
52435;DHT22;38354;52.892;6.148;2022-11-20T05:45:12;-0.90;99.90
52435;DHT22;38354;52.892;6.148;2022-11-20T05:47:38;-0.90;99.90
52435;DHT22;38354;52.892;6.148;2022-11-20T05:50:04;-0.90;99.90
52435;DHT22;38354;52.892;6.148;2022-11-20T05:52:30;-0.90;99.90
52435;DHT22;38354;52.892;6.148;2022-11-20T05:54:56;-0.90;99.90
52435;DHT22;38354;52.892;6.148;2022-11-20T05:57:22;-0.90;99.90
52435;DHT22;38354;52.892;6.148;2022-11-20T05:59:47;-0.90;99.90
52435;DHT22;38354;52.892;6.148;2022-11-20T06:02:13;-0.90;99.90
52435;DHT22;38354;52.892;6.148;2022-11-20T06:04:39;-0.80;99.90
52435;DHT22;38354;52.892;6.148;2022-11-20T06:07:05;-0.80;99.90
52435;DHT22;38354;52.892;6.148;2022-11-20T06:09:31;-0.90;99.90
52435;DHT22;38354;52.892;6.148;2022-11-20T06:11:57;-0.90;99.90
52435;DHT22;38354;52.892;6.148;2022-11-20T06:14:22;-0.80;99.90
52435;DHT22;38354;52.892;6.148;2022-11-20T06:16:48;-0.80;99.90
52435;DHT22;38354;52.892;6.148;2022-11-20T06:19:14;-0.80;99.90
52435;DHT22;38354;52.892;6.148;2022-11-20T06:21:40;-0.80;99.90
52435;DHT22;38354;52.892;6.148;2022-11-20T06:24:06;-0.70;99.90
52435;DHT22;38354;52.892;6.148;2022-11-20T06:26:33;-0.70;99.90
52435;DHT22;38354;52.892;6.148;2022-11-20T06:28:59;-0.70;99.90
52435;DHT22;38354;52.892;6.148;2022-11-20T06:31:25;-0.70;99.90
52435;DHT22;38354;52.892;6.148;2022-11-20T06:33:51;-0.70;99.90
52435;DHT22;38354;52.892;6.148;2022-11-20T06:36:20;-0.70;99.90
52435;DHT22;38354;52.892;6.148;2022-11-20T06:38:46;-0.60;99.90
52435;DHT22;38354;52.892;6.148;2022-11-20T06:41:18;-0.60;99.90
52435;DHT22;38354;52.892;6.148;2022-11-20T06:43:44;-0.60;99.90
52435;DHT22;38354;52.892;6.148;2022-11-20T06:46:11;-0.60;99.90
52435;DHT22;38354;52.892;6.148;2022-11-20T06:48:38;-0.60;99.90
52435;DHT22;38354;52.892;6.148;2022-11-20T06:51:05;-0.60;99.90
52435;DHT22;38354;52.892;6.148;2022-11-20T06:53:32;-0.60;99.90
52435;DHT22;38354;52.892;6.148;2022-11-20T06:55:57;-0.60;99.90
52435;DHT22;38354;52.892;6.148;2022-11-20T06:58:25;-0.60;99.90
52435;DHT22;38354;52.892;6.148;2022-11-20T07:00:51;-0.50;99.90
52435;DHT22;38354;52.892;6.148;2022-11-20T07:03:17;-0.50;99.90
52435;DHT22;38354;52.892;6.148;2022-11-20T07:05:42;-0.50;99.90
52435;DHT22;38354;52.892;6.148;2022-11-20T07:08:09;-0.50;99.90
52435;DHT22;38354;52.892;6.148;2022-11-20T07:10:35;-0.50;99.90
52435;DHT22;38354;52.892;6.148;2022-11-20T07:13:00;-0.50;99.90
52435;DHT22;38354;52.892;6.148;2022-11-20T07:15:27;-0.50;99.90
52435;DHT22;38354;52.892;6.148;2022-11-20T07:17:52;-0.50;99.90
52435;DHT22;38354;52.892;6.148;2022-11-20T07:20:18;-0.50;99.90
52435;DHT22;38354;52.892;6.148;2022-11-20T07:22:44;-0.50;99.90
52435;DHT22;38354;52.892;6.148;2022-11-20T07:25:10;-0.50;99.90
52435;DHT22;38354;52.892;6.148;2022-11-20T07:27:36;-0.50;99.90
52435;DHT22;38354;52.892;6.148;2022-11-20T07:30:03;-0.50;99.90
52435;DHT22;38354;52.892;6.148;2022-11-20T07:32:29;-0.50;99.90
52435;DHT22;38354;52.892;6.148;2022-11-20T07:34:54;-0.50;99.90
52435;DHT22;38354;52.892;6.148;2022-11-20T07:37:20;-0.50;99.90
52435;DHT22;38354;52.892;6.148;2022-11-20T07:39:46;-0.50;99.90
52435;DHT22;38354;52.892;6.148;2022-11-20T07:42:11;-0.50;99.90
52435;DHT22;38354;52.892;6.148;2022-11-20T07:44:38;-0.50;99.90
52435;DHT22;38354;52.892;6.148;2022-11-20T07:47:03;-0.50;99.90
52435;DHT22;38354;52.892;6.148;2022-11-20T07:49:29;-0.50;99.90
52435;DHT22;38354;52.892;6.148;2022-11-20T07:51:55;-0.50;99.90
52435;DHT22;38354;52.892;6.148;2022-11-20T07:54:21;-0.50;99.90
52435;DHT22;38354;52.892;6.148;2022-11-20T07:56:47;-0.50;99.90
52435;DHT22;38354;52.892;6.148;2022-11-20T07:59:13;-0.50;99.90
52435;DHT22;38354;52.892;6.148;2022-11-20T08:01:40;-0.40;99.90
52435;DHT22;38354;52.892;6.148;2022-11-20T08:04:05;-0.50;99.90
52435;DHT22;38354;52.892;6.148;2022-11-20T08:06:32;-0.50;99.90
52435;DHT22;38354;52.892;6.148;2022-11-20T08:08:57;-0.50;99.90
52435;DHT22;38354;52.892;6.148;2022-11-20T08:11:23;-0.50;99.90
52435;DHT22;38354;52.892;6.148;2022-11-20T08:14:07;-0.50;99.90
52435;DHT22;38354;52.892;6.148;2022-11-20T08:16:40;-0.50;99.90
52435;DHT22;38354;52.892;6.148;2022-11-20T08:19:06;-0.60;99.90
52435;DHT22;38354;52.892;6.148;2022-11-20T08:21:32;-0.60;99.90
52435;DHT22;38354;52.892;6.148;2022-11-20T08:23:58;-0.60;99.90
52435;DHT22;38354;52.892;6.148;2022-11-20T08:26:24;-0.60;99.90
52435;DHT22;38354;52.892;6.148;2022-11-20T08:28:54;-0.50;99.90
52435;DHT22;38354;52.892;6.148;2022-11-20T08:31:21;-0.50;99.90
52435;DHT22;38354;52.892;6.148;2022-11-20T08:33:47;-0.50;99.90
52435;DHT22;38354;52.892;6.148;2022-11-20T08:36:13;-0.40;99.90
52435;DHT22;38354;52.892;6.148;2022-11-20T08:38:38;-0.30;99.90
52435;DHT22;38354;52.892;6.148;2022-11-20T08:41:04;-0.20;99.90
52435;DHT22;38354;52.892;6.148;2022-11-20T08:43:54;-0.10;99.90
52435;DHT22;38354;52.892;6.148;2022-11-20T08:46:20;0.10;99.90
52435;DHT22;38354;52.892;6.148;2022-11-20T08:48:46;0.30;99.90
52435;DHT22;38354;52.892;6.148;2022-11-20T08:51:12;0.50;99.90
52435;DHT22;38354;52.892;6.148;2022-11-20T08:53:39;0.70;99.90
52435;DHT22;38354;52.892;6.148;2022-11-20T08:56:05;0.90;99.90
52435;DHT22;38354;52.892;6.148;2022-11-20T08:58:31;0.80;99.90
52435;DHT22;38354;52.892;6.148;2022-11-20T09:00:57;0.70;99.90
52435;DHT22;38354;52.892;6.148;2022-11-20T09:03:22;0.60;99.90
52435;DHT22;38354;52.892;6.148;2022-11-20T09:05:48;0.50;99.90
52435;DHT22;38354;52.892;6.148;2022-11-20T09:08:14;0.50;99.90
52435;DHT22;38354;52.892;6.148;2022-11-20T09:10:39;0.40;99.90
52435;DHT22;38354;52.892;6.148;2022-11-20T09:13:05;0.40;99.90
52435;DHT22;38354;52.892;6.148;2022-11-20T09:15:31;0.40;99.90
52435;DHT22;38354;52.892;6.148;2022-11-20T09:17:59;0.40;99.90
52435;DHT22;38354;52.892;6.148;2022-11-20T09:20:27;0.40;99.90
52435;DHT22;38354;52.892;6.148;2022-11-20T09:22:54;0.50;99.90
52435;DHT22;38354;52.892;6.148;2022-11-20T09:25:20;0.60;99.90
52435;DHT22;38354;52.892;6.148;2022-11-20T09:27:46;0.80;99.90
52435;DHT22;38354;52.892;6.148;2022-11-20T09:30:16;0.90;99.90
52435;DHT22;38354;52.892;6.148;2022-11-20T09:32:42;1.00;99.90
52435;DHT22;38354;52.892;6.148;2022-11-20T09:35:08;1.10;99.90
52435;DHT22;38354;52.892;6.148;2022-11-20T09:37:34;1.20;99.90
52435;DHT22;38354;52.892;6.148;2022-11-20T09:40:00;1.30;99.90
52435;DHT22;38354;52.892;6.148;2022-11-20T09:42:32;1.40;99.90
52435;DHT22;38354;52.892;6.148;2022-11-20T09:45:20;1.40;99.90
52435;DHT22;38354;52.892;6.148;2022-11-20T09:56:43;1.80;99.90
52435;DHT22;38354;52.892;6.148;2022-11-20T09:59:21;2.00;99.90
52435;DHT22;38354;52.892;6.148;2022-11-20T10:01:49;2.00;99.90
52435;DHT22;38354;52.892;6.148;2022-11-20T10:04:20;2.10;99.90
52435;DHT22;38354;52.892;6.148;2022-11-20T10:07:10;2.30;99.90
52435;DHT22;38354;52.892;6.148;2022-11-20T10:09:40;2.40;99.90
52435;DHT22;38354;52.892;6.148;2022-11-20T10:12:13;2.60;99.90
52435;DHT22;38354;52.892;6.148;2022-11-20T10:21:08;3.10;99.90
52435;DHT22;38354;52.892;6.148;2022-11-20T10:26:21;3.40;99.90
52435;DHT22;38354;52.892;6.148;2022-11-20T10:29:11;3.50;99.90
52435;DHT22;38354;52.892;6.148;2022-11-20T10:31:45;3.60;99.90
52435;DHT22;38354;52.892;6.148;2022-11-20T10:34:23;3.70;99.90
52435;DHT22;38354;52.892;6.148;2022-11-20T10:37:02;3.90;99.90
52435;DHT22;38354;52.892;6.148;2022-11-20T10:39:35;4.00;99.90
52435;DHT22;38354;52.892;6.148;2022-11-20T10:42:10;4.10;99.90
52435;DHT22;38354;52.892;6.148;2022-11-20T10:44:36;4.20;99.90
52435;DHT22;38354;52.892;6.148;2022-11-20T10:47:25;4.20;99.90
52435;DHT22;38354;52.892;6.148;2022-11-20T10:49:55;4.10;99.90
52435;DHT22;38354;52.892;6.148;2022-11-20T11:00:37;3.50;99.90
52435;DHT22;38354;52.892;6.148;2022-11-20T11:03:22;3.40;99.90
52435;DHT22;38354;52.892;6.148;2022-11-20T11:08:28;3.30;99.90
52435;DHT22;38354;52.892;6.148;2022-11-20T11:11:02;3.30;99.90
52435;DHT22;38354;52.892;6.148;2022-11-20T11:13:29;3.20;99.90
52435;DHT22;38354;52.892;6.148;2022-11-20T11:15:55;3.10;99.90
52435;DHT22;38354;52.892;6.148;2022-11-20T11:18:25;3.10;99.90
52435;DHT22;38354;52.892;6.148;2022-11-20T11:20:51;3.00;99.90
52435;DHT22;38354;52.892;6.148;2022-11-20T11:23:36;3.00;99.90
52435;DHT22;38354;52.892;6.148;2022-11-20T11:26:05;2.90;99.90
52435;DHT22;38354;52.892;6.148;2022-11-20T11:28:32;2.90;99.90
52435;DHT22;38354;52.892;6.148;2022-11-20T11:30:58;2.90;99.90
52435;DHT22;38354;52.892;6.148;2022-11-20T11:33:26;3.00;99.90
52435;DHT22;38354;52.892;6.148;2022-11-20T11:36:00;3.00;99.90
52435;DHT22;38354;52.892;6.148;2022-11-20T11:41:01;3.00;99.90
52435;DHT22;38354;52.892;6.148;2022-11-20T11:43:31;3.00;99.90
52435;DHT22;38354;52.892;6.148;2022-11-20T11:46:32;3.10;99.90
52435;DHT22;38354;52.892;6.148;2022-11-20T11:49:16;3.50;99.90
52435;DHT22;38354;52.892;6.148;2022-11-20T11:52:09;3.90;99.90
52435;DHT22;38354;52.892;6.148;2022-11-20T11:54:41;4.10;99.90
52435;DHT22;38354;52.892;6.148;2022-11-20T12:00:18;4.20;99.90
52435;DHT22;38354;52.892;6.148;2022-11-20T12:05:30;4.00;99.90
52435;DHT22;38354;52.892;6.148;2022-11-20T12:08:21;3.80;99.90
52435;DHT22;38354;52.892;6.148;2022-11-20T12:10:56;3.60;99.90
52435;DHT22;38354;52.892;6.148;2022-11-20T12:13:40;3.50;99.90
52435;DHT22;38354;52.892;6.148;2022-11-20T12:16:13;3.40;99.90
52435;DHT22;38354;52.892;6.148;2022-11-20T12:18:40;3.40;99.90
52435;DHT22;38354;52.892;6.148;2022-11-20T12:21:31;3.30;99.90
52435;DHT22;38354;52.892;6.148;2022-11-20T12:30:12;3.30;99.90
52435;DHT22;38354;52.892;6.148;2022-11-20T12:32:49;3.30;99.90
52435;DHT22;38354;52.892;6.148;2022-11-20T12:50:28;3.10;99.90
52435;DHT22;38354;52.892;6.148;2022-11-20T12:53:02;3.10;99.90
52435;DHT22;38354;52.892;6.148;2022-11-20T12:55:47;3.10;99.90
52435;DHT22;38354;52.892;6.148;2022-11-20T12:58:34;3.10;99.90
52435;DHT22;38354;52.892;6.148;2022-11-20T13:01:30;3.10;99.90
52435;DHT22;38354;52.892;6.148;2022-11-20T13:07:08;3.00;99.90
52435;DHT22;38354;52.892;6.148;2022-11-20T13:09:42;3.10;99.90
52435;DHT22;38354;52.892;6.148;2022-11-20T13:12:17;3.00;99.90
52435;DHT22;38354;52.892;6.148;2022-11-20T13:15:17;3.10;99.90
52435;DHT22;38354;52.892;6.148;2022-11-20T13:18:02;3.10;99.90
52435;DHT22;38354;52.892;6.148;2022-11-20T13:20:29;3.10;99.90
52435;DHT22;38354;52.892;6.148;2022-11-20T13:22:56;3.10;99.90
52435;DHT22;38354;52.892;6.148;2022-11-20T13:27:53;3.10;99.90
52435;DHT22;38354;52.892;6.148;2022-11-20T13:30:23;3.10;99.90
52435;DHT22;38354;52.892;6.148;2022-11-20T13:35:37;3.00;99.90
52435;DHT22;38354;52.892;6.148;2022-11-20T13:38:04;3.00;99.90
52435;DHT22;38354;52.892;6.148;2022-11-20T13:40:31;3.00;99.90
52435;DHT22;38354;52.892;6.148;2022-11-20T13:45:34;2.90;99.90
52435;DHT22;38354;52.892;6.148;2022-11-20T13:48:19;2.90;99.90
52435;DHT22;38354;52.892;6.148;2022-11-20T13:51:24;2.90;99.90
52435;DHT22;38354;52.892;6.148;2022-11-20T13:54:05;2.80;99.90
52435;DHT22;38354;52.892;6.148;2022-11-20T13:56:35;2.80;99.90
52435;DHT22;38354;52.892;6.148;2022-11-20T14:01:53;2.70;99.90
52435;DHT22;38354;52.892;6.148;2022-11-20T14:04:26;2.70;99.90
52435;DHT22;38354;52.892;6.148;2022-11-20T14:06:54;2.70;99.90
52435;DHT22;38354;52.892;6.148;2022-11-20T14:09:28;2.70;99.90
52435;DHT22;38354;52.892;6.148;2022-11-20T14:11:55;2.70;99.90
52435;DHT22;38354;52.892;6.148;2022-11-20T14:14:25;2.60;99.90
52435;DHT22;38354;52.892;6.148;2022-11-20T14:16:53;2.60;99.90
52435;DHT22;38354;52.892;6.148;2022-11-20T14:19:30;2.60;99.90
52435;DHT22;38354;52.892;6.148;2022-11-20T14:22:22;2.60;99.90
52435;DHT22;38354;52.892;6.148;2022-11-20T14:25:00;2.60;99.90
52435;DHT22;38354;52.892;6.148;2022-11-20T14:27:26;2.60;99.90
52435;DHT22;38354;52.892;6.148;2022-11-20T14:29:52;2.60;99.90
52435;DHT22;38354;52.892;6.148;2022-11-20T14:32:19;2.50;99.90
52435;DHT22;38354;52.892;6.148;2022-11-20T14:34:48;2.50;99.90
52435;DHT22;38354;52.892;6.148;2022-11-20T14:37:24;2.50;99.90
52435;DHT22;38354;52.892;6.148;2022-11-20T14:39:53;2.50;99.90
52435;DHT22;38354;52.892;6.148;2022-11-20T14:42:25;2.50;99.90
52435;DHT22;38354;52.892;6.148;2022-11-20T14:44:55;2.50;99.90
52435;DHT22;38354;52.892;6.148;2022-11-20T14:47:23;2.40;99.90
52435;DHT22;38354;52.892;6.148;2022-11-20T14:49:51;2.40;99.90
52435;DHT22;38354;52.892;6.148;2022-11-20T14:52:20;2.40;99.90
52435;DHT22;38354;52.892;6.148;2022-11-20T14:54:51;2.40;99.90
52435;DHT22;38354;52.892;6.148;2022-11-20T14:57:23;2.40;99.90
52435;DHT22;38354;52.892;6.148;2022-11-20T14:59:48;2.40;99.90
52435;DHT22;38354;52.892;6.148;2022-11-20T15:02:14;2.40;99.90
52435;DHT22;38354;52.892;6.148;2022-11-20T15:04:55;2.40;99.90
52435;DHT22;38354;52.892;6.148;2022-11-20T15:07:29;2.30;99.90
52435;DHT22;38354;52.892;6.148;2022-11-20T15:10:03;2.40;99.90
52435;DHT22;38354;52.892;6.148;2022-11-20T15:12:36;2.30;99.90
52435;DHT22;38354;52.892;6.148;2022-11-20T15:15:03;2.30;99.90
52435;DHT22;38354;52.892;6.148;2022-11-20T15:17:31;2.30;99.90
52435;DHT22;38354;52.892;6.148;2022-11-20T15:19:57;2.30;99.90
52435;DHT22;38354;52.892;6.148;2022-11-20T15:22:22;2.30;99.90
52435;DHT22;38354;52.892;6.148;2022-11-20T15:24:48;2.30;99.90
52435;DHT22;38354;52.892;6.148;2022-11-20T15:27:14;2.30;99.90
52435;DHT22;38354;52.892;6.148;2022-11-20T15:29:40;2.30;99.90
52435;DHT22;38354;52.892;6.148;2022-11-20T15:32:08;2.30;99.90
52435;DHT22;38354;52.892;6.148;2022-11-20T15:34:33;2.30;99.90
52435;DHT22;38354;52.892;6.148;2022-11-20T15:36:59;2.30;99.90
52435;DHT22;38354;52.892;6.148;2022-11-20T15:39:25;2.30;99.90
52435;DHT22;38354;52.892;6.148;2022-11-20T15:41:50;2.40;99.90
52435;DHT22;38354;52.892;6.148;2022-11-20T15:44:20;2.40;99.90
52435;DHT22;38354;52.892;6.148;2022-11-20T15:46:45;2.30;99.90
52435;DHT22;38354;52.892;6.148;2022-11-20T15:49:16;2.30;99.90
52435;DHT22;38354;52.892;6.148;2022-11-20T15:51:46;2.40;99.90
52435;DHT22;38354;52.892;6.148;2022-11-20T15:54:18;2.30;99.90
52435;DHT22;38354;52.892;6.148;2022-11-20T15:56:46;2.30;99.90
52435;DHT22;38354;52.892;6.148;2022-11-20T15:59:12;2.40;99.90
52435;DHT22;38354;52.892;6.148;2022-11-20T16:01:40;2.40;99.90
52435;DHT22;38354;52.892;6.148;2022-11-20T16:04:14;2.40;99.90
52435;DHT22;38354;52.892;6.148;2022-11-20T16:06:40;2.40;99.90
52435;DHT22;38354;52.892;6.148;2022-11-20T16:09:06;2.30;99.90
52435;DHT22;38354;52.892;6.148;2022-11-20T16:11:32;2.40;99.90
52435;DHT22;38354;52.892;6.148;2022-11-20T16:13:58;2.40;99.90
52435;DHT22;38354;52.892;6.148;2022-11-20T16:16:41;2.30;99.90
52435;DHT22;38354;52.892;6.148;2022-11-20T16:19:14;2.30;99.90
52435;DHT22;38354;52.892;6.148;2022-11-20T16:21:41;2.40;99.90
52435;DHT22;38354;52.892;6.148;2022-11-20T16:24:09;2.40;99.90
52435;DHT22;38354;52.892;6.148;2022-11-20T16:26:36;2.40;99.90
52435;DHT22;38354;52.892;6.148;2022-11-20T16:29:04;2.40;99.90
52435;DHT22;38354;52.892;6.148;2022-11-20T16:31:30;2.40;99.90
52435;DHT22;38354;52.892;6.148;2022-11-20T16:34:01;2.40;99.90
52435;DHT22;38354;52.892;6.148;2022-11-20T16:36:28;2.40;99.90
52435;DHT22;38354;52.892;6.148;2022-11-20T16:38:57;2.40;99.90
52435;DHT22;38354;52.892;6.148;2022-11-20T16:41:23;2.40;99.90
52435;DHT22;38354;52.892;6.148;2022-11-20T16:43:56;2.40;99.90
52435;DHT22;38354;52.892;6.148;2022-11-20T16:46:23;2.40;99.90
52435;DHT22;38354;52.892;6.148;2022-11-20T16:51:22;2.40;99.90
52435;DHT22;38354;52.892;6.148;2022-11-20T16:53:48;2.40;99.90
52435;DHT22;38354;52.892;6.148;2022-11-20T16:56:17;2.40;99.90
52435;DHT22;38354;52.892;6.148;2022-11-20T16:58:45;2.40;99.90
52435;DHT22;38354;52.892;6.148;2022-11-20T17:01:12;2.40;99.90
52435;DHT22;38354;52.892;6.148;2022-11-20T17:03:39;2.40;99.90
52435;DHT22;38354;52.892;6.148;2022-11-20T17:06:14;2.30;99.90
52435;DHT22;38354;52.892;6.148;2022-11-20T17:08:40;2.40;99.90
52435;DHT22;38354;52.892;6.148;2022-11-20T17:11:11;2.30;99.90
52435;DHT22;38354;52.892;6.148;2022-11-20T17:13:37;2.30;99.90
52435;DHT22;38354;52.892;6.148;2022-11-20T17:16:06;2.30;99.90
52435;DHT22;38354;52.892;6.148;2022-11-20T17:18:32;2.30;99.90
52435;DHT22;38354;52.892;6.148;2022-11-20T17:20:58;2.30;99.90
52435;DHT22;38354;52.892;6.148;2022-11-20T17:23:28;2.20;99.90
52435;DHT22;38354;52.892;6.148;2022-11-20T17:26:01;2.20;99.90
52435;DHT22;38354;52.892;6.148;2022-11-20T17:28:27;2.20;99.90
52435;DHT22;38354;52.892;6.148;2022-11-20T17:30:57;2.20;99.90
52435;DHT22;38354;52.892;6.148;2022-11-20T17:33:23;2.20;99.90
52435;DHT22;38354;52.892;6.148;2022-11-20T17:35:49;2.10;99.90
52435;DHT22;38354;52.892;6.148;2022-11-20T17:38:14;2.10;99.90
52435;DHT22;38354;52.892;6.148;2022-11-20T17:40:40;2.10;99.90
52435;DHT22;38354;52.892;6.148;2022-11-20T17:43:05;2.10;99.90
52435;DHT22;38354;52.892;6.148;2022-11-20T17:45:34;2.10;99.90
52435;DHT22;38354;52.892;6.148;2022-11-20T17:48:00;2.10;99.90
52435;DHT22;38354;52.892;6.148;2022-11-20T17:50:26;2.00;99.90
52435;DHT22;38354;52.892;6.148;2022-11-20T17:52:52;2.00;99.90
52435;DHT22;38354;52.892;6.148;2022-11-20T17:55:17;2.00;99.90
52435;DHT22;38354;52.892;6.148;2022-11-20T17:57:43;2.00;99.90
52435;DHT22;38354;52.892;6.148;2022-11-20T18:00:19;2.00;99.90
52435;DHT22;38354;52.892;6.148;2022-11-20T18:02:44;2.10;99.90
52435;DHT22;38354;52.892;6.148;2022-11-20T18:05:10;2.00;99.90
52435;DHT22;38354;52.892;6.148;2022-11-20T18:07:36;2.00;99.90
52435;DHT22;38354;52.892;6.148;2022-11-20T18:10:04;2.00;99.90
52435;DHT22;38354;52.892;6.148;2022-11-20T18:12:30;2.00;99.90
52435;DHT22;38354;52.892;6.148;2022-11-20T18:14:55;2.00;99.90
52435;DHT22;38354;52.892;6.148;2022-11-20T18:17:21;2.00;99.90
52435;DHT22;38354;52.892;6.148;2022-11-20T18:19:47;2.00;99.90
52435;DHT22;38354;52.892;6.148;2022-11-20T18:22:15;2.00;99.90
52435;DHT22;38354;52.892;6.148;2022-11-20T18:24:41;2.00;99.90
52435;DHT22;38354;52.892;6.148;2022-11-20T18:27:13;2.00;99.90
52435;DHT22;38354;52.892;6.148;2022-11-20T18:29:39;2.00;99.90
52435;DHT22;38354;52.892;6.148;2022-11-20T18:32:04;2.00;99.90
52435;DHT22;38354;52.892;6.148;2022-11-20T18:34:30;2.00;99.90
52435;DHT22;38354;52.892;6.148;2022-11-20T18:36:56;1.90;99.90
52435;DHT22;38354;52.892;6.148;2022-11-20T18:39:22;1.90;99.90
52435;DHT22;38354;52.892;6.148;2022-11-20T18:41:48;1.90;99.90
52435;DHT22;38354;52.892;6.148;2022-11-20T18:44:32;1.90;99.90
52435;DHT22;38354;52.892;6.148;2022-11-20T18:47:26;1.90;99.90
52435;DHT22;38354;52.892;6.148;2022-11-20T18:49:55;1.90;99.90
52435;DHT22;38354;52.892;6.148;2022-11-20T18:52:43;1.90;99.90
52435;DHT22;38354;52.892;6.148;2022-11-20T18:55:09;1.90;99.90
52435;DHT22;38354;52.892;6.148;2022-11-20T18:57:35;1.90;99.90
52435;DHT22;38354;52.892;6.148;2022-11-20T19:00:02;1.90;99.90
52435;DHT22;38354;52.892;6.148;2022-11-20T19:02:28;1.90;99.90
52435;DHT22;38354;52.892;6.148;2022-11-20T19:04:55;2.00;99.90
52435;DHT22;38354;52.892;6.148;2022-11-20T19:07:21;1.90;99.90
52435;DHT22;38354;52.892;6.148;2022-11-20T19:09:49;1.90;99.90
52435;DHT22;38354;52.892;6.148;2022-11-20T19:12:17;1.90;99.90
52435;DHT22;38354;52.892;6.148;2022-11-20T19:14:43;1.90;99.90
52435;DHT22;38354;52.892;6.148;2022-11-20T19:17:09;1.90;99.90
52435;DHT22;38354;52.892;6.148;2022-11-20T19:19:38;1.90;99.90
52435;DHT22;38354;52.892;6.148;2022-11-20T19:22:04;1.90;99.90
52435;DHT22;38354;52.892;6.148;2022-11-20T19:24:30;1.90;99.90
52435;DHT22;38354;52.892;6.148;2022-11-20T19:26:56;1.90;99.90
52435;DHT22;38354;52.892;6.148;2022-11-20T19:29:22;1.90;99.90
52435;DHT22;38354;52.892;6.148;2022-11-20T19:31:48;1.80;99.90
52435;DHT22;38354;52.892;6.148;2022-11-20T19:34:14;1.90;99.90
52435;DHT22;38354;52.892;6.148;2022-11-20T19:36:40;1.80;99.90
52435;DHT22;38354;52.892;6.148;2022-11-20T19:39:07;1.80;99.90
52435;DHT22;38354;52.892;6.148;2022-11-20T19:41:35;1.80;99.90
52435;DHT22;38354;52.892;6.148;2022-11-20T19:46:29;1.80;99.90
52435;DHT22;38354;52.892;6.148;2022-11-20T19:48:56;1.80;99.90
52435;DHT22;38354;52.892;6.148;2022-11-20T19:51:24;1.80;99.90
52435;DHT22;38354;52.892;6.148;2022-11-20T19:53:50;1.80;99.90
52435;DHT22;38354;52.892;6.148;2022-11-20T19:56:17;1.80;99.90
52435;DHT22;38354;52.892;6.148;2022-11-20T19:58:42;1.80;99.90
52435;DHT22;38354;52.892;6.148;2022-11-20T20:01:10;1.80;99.90
52435;DHT22;38354;52.892;6.148;2022-11-20T20:03:37;1.90;99.90
52435;DHT22;38354;52.892;6.148;2022-11-20T20:06:05;1.90;99.90
52435;DHT22;38354;52.892;6.148;2022-11-20T20:08:31;2.00;99.90
52435;DHT22;38354;52.892;6.148;2022-11-20T20:10:57;2.00;99.90
52435;DHT22;38354;52.892;6.148;2022-11-20T20:13:24;2.00;99.90
52435;DHT22;38354;52.892;6.148;2022-11-20T20:15:51;2.00;99.90
52435;DHT22;38354;52.892;6.148;2022-11-20T20:18:16;2.00;99.90
52435;DHT22;38354;52.892;6.148;2022-11-20T20:20:42;2.00;99.90
52435;DHT22;38354;52.892;6.148;2022-11-20T20:23:08;2.00;99.90
52435;DHT22;38354;52.892;6.148;2022-11-20T20:25:35;2.00;99.90
52435;DHT22;38354;52.892;6.148;2022-11-20T20:28:03;2.10;99.90
52435;DHT22;38354;52.892;6.148;2022-11-20T20:30:28;2.10;99.90
52435;DHT22;38354;52.892;6.148;2022-11-20T20:32:54;2.10;99.90
52435;DHT22;38354;52.892;6.148;2022-11-20T20:35:20;2.10;99.90
52435;DHT22;38354;52.892;6.148;2022-11-20T20:37:45;2.10;99.90
52435;DHT22;38354;52.892;6.148;2022-11-20T20:40:11;2.10;99.90
52435;DHT22;38354;52.892;6.148;2022-11-20T20:42:37;2.10;99.90
52435;DHT22;38354;52.892;6.148;2022-11-20T20:45:03;2.10;99.90
52435;DHT22;38354;52.892;6.148;2022-11-20T20:47:39;2.10;99.90
52435;DHT22;38354;52.892;6.148;2022-11-20T20:50:08;2.10;99.90
52435;DHT22;38354;52.892;6.148;2022-11-20T20:52:34;2.10;99.90
52435;DHT22;38354;52.892;6.148;2022-11-20T20:55:00;2.10;99.90
52435;DHT22;38354;52.892;6.148;2022-11-20T20:57:26;2.10;99.90
52435;DHT22;38354;52.892;6.148;2022-11-20T20:59:53;2.10;99.90
52435;DHT22;38354;52.892;6.148;2022-11-20T21:02:23;2.10;99.90
52435;DHT22;38354;52.892;6.148;2022-11-20T21:04:49;2.10;99.90
52435;DHT22;38354;52.892;6.148;2022-11-20T21:07:15;2.10;99.90
52435;DHT22;38354;52.892;6.148;2022-11-20T21:09:41;2.10;99.90
52435;DHT22;38354;52.892;6.148;2022-11-20T21:12:07;2.00;99.90
52435;DHT22;38354;52.892;6.148;2022-11-20T21:14:33;2.00;99.90
52435;DHT22;38354;52.892;6.148;2022-11-20T21:16:59;2.10;99.90
52435;DHT22;38354;52.892;6.148;2022-11-20T21:19:25;2.00;99.90
52435;DHT22;38354;52.892;6.148;2022-11-20T21:21:53;2.00;99.90
52435;DHT22;38354;52.892;6.148;2022-11-20T21:24:32;2.00;99.90
52435;DHT22;38354;52.892;6.148;2022-11-20T21:26:59;2.00;99.90
52435;DHT22;38354;52.892;6.148;2022-11-20T21:29:26;2.00;99.90
52435;DHT22;38354;52.892;6.148;2022-11-20T21:31:53;2.10;99.90
52435;DHT22;38354;52.892;6.148;2022-11-20T21:34:19;2.10;99.90
52435;DHT22;38354;52.892;6.148;2022-11-20T21:36:45;2.00;99.90
52435;DHT22;38354;52.892;6.148;2022-11-20T21:39:12;2.00;99.90
52435;DHT22;38354;52.892;6.148;2022-11-20T21:41:38;2.00;99.90
52435;DHT22;38354;52.892;6.148;2022-11-20T21:44:05;2.00;99.90
52435;DHT22;38354;52.892;6.148;2022-11-20T21:46:32;2.00;99.90
52435;DHT22;38354;52.892;6.148;2022-11-20T21:48:58;2.10;99.90
52435;DHT22;38354;52.892;6.148;2022-11-20T21:51:26;2.10;99.90
52435;DHT22;38354;52.892;6.148;2022-11-20T21:53:54;2.10;99.90
52435;DHT22;38354;52.892;6.148;2022-11-20T21:56:22;2.10;99.90
52435;DHT22;38354;52.892;6.148;2022-11-20T21:58:48;2.10;99.90
52435;DHT22;38354;52.892;6.148;2022-11-20T22:01:24;2.10;99.90
52435;DHT22;38354;52.892;6.148;2022-11-20T22:03:52;2.10;99.90
52435;DHT22;38354;52.892;6.148;2022-11-20T22:06:19;2.10;99.90
52435;DHT22;38354;52.892;6.148;2022-11-20T22:08:45;2.10;99.90
52435;DHT22;38354;52.892;6.148;2022-11-20T22:11:13;2.10;99.90